createdAt,value
2023-02-24T00:00:50.838Z,11.38
2023-02-24T00:01:51.013Z,11.41
2023-02-24T00:02:51.255Z,11.43
2023-02-24T00:03:51.363Z,11.41
2023-02-24T00:04:51.563Z,11.39
2023-02-24T00:05:51.704Z,11.39
2023-02-24T00:06:51.877Z,11.41
2023-02-24T00:07:52.063Z,11.36
2023-02-24T00:08:52.239Z,11.31
2023-02-24T00:09:52.407Z,11.32
2023-02-24T00:10:52.609Z,11.35
2023-02-24T00:11:52.765Z,11.31
2023-02-24T00:12:52.947Z,11.32
2023-02-24T00:13:53.110Z,11.36
2023-02-24T00:14:53.280Z,11.38
2023-02-24T00:15:53.459Z,11.36
2023-02-24T00:16:53.826Z,11.35
2023-02-24T00:17:53.801Z,11.35
2023-02-24T00:18:53.959Z,11.36
2023-02-24T00:19:54.115Z,11.29
2023-02-24T00:20:54.279Z,11.32
2023-02-24T00:21:54.470Z,11.25
2023-02-24T00:22:54.614Z,11.27
2023-02-24T00:23:54.774Z,11.24
2023-02-24T00:24:54.947Z,11.27
2023-02-24T00:25:55.137Z,11.21
2023-02-24T00:26:55.284Z,11.19
2023-02-24T00:27:55.483Z,11.17
2023-02-24T00:28:55.633Z,11.13
2023-02-24T00:29:55.805Z,11.16
2023-02-24T00:30:56.244Z,11.13
2023-02-24T00:31:56.319Z,11.12
2023-02-24T00:32:56.349Z,11.13
2023-02-24T00:33:56.498Z,11.12
2023-02-24T00:34:56.675Z,11.12
2023-02-24T00:35:56.858Z,11.09
2023-02-24T00:36:57.031Z,11.07
2023-02-24T00:37:57.186Z,11.04
2023-02-24T00:38:57.421Z,11.09
2023-02-24T00:39:57.532Z,11.07
2023-02-24T00:40:57.729Z,11.13
2023-02-24T00:41:57.894Z,11.13
2023-02-24T00:42:58.065Z,11.12
2023-02-24T00:43:58.228Z,11.14
2023-02-24T00:44:58.440Z,11.16
2023-02-24T00:45:58.640Z,11.16
2023-02-24T00:46:58.768Z,11.12
2023-02-24T00:47:58.987Z,11.12
2023-02-24T00:48:59.101Z,11.12
2023-02-24T00:49:59.261Z,11.14
2023-02-24T00:50:59.441Z,11.10
2023-02-24T00:51:59.630Z,11.13
2023-02-24T00:52:59.792Z,11.14
2023-02-24T00:53:59.958Z,11.09
2023-02-24T00:55:00.142Z,11.09
2023-02-24T00:56:00.333Z,11.06
2023-02-24T00:57:00.470Z,11.03
2023-02-24T00:58:00.657Z,11.06
2023-02-24T00:59:00.822Z,11.10
2023-02-24T01:00:01.001Z,11.07
2023-02-24T01:01:01.196Z,11.16
2023-02-24T01:02:01.407Z,11.12
2023-02-24T01:03:01.510Z,11.14
2023-02-24T01:04:01.737Z,11.17
2023-02-24T01:05:01.886Z,11.19
2023-02-24T01:06:02.055Z,11.19
2023-02-24T01:07:02.233Z,11.24
2023-02-24T01:08:02.407Z,11.17
2023-02-24T01:09:02.580Z,11.22
2023-02-24T01:10:02.746Z,11.21
2023-02-24T01:11:02.939Z,11.16
2023-02-24T01:12:03.184Z,11.16
2023-02-24T01:13:03.277Z,11.22
2023-02-24T01:14:03.451Z,11.21
2023-02-24T01:15:03.603Z,11.22
2023-02-24T01:16:03.815Z,11.19
2023-02-24T01:17:03.980Z,11.22
2023-02-24T01:18:04.102Z,11.19
2023-02-24T01:19:04.266Z,11.22
2023-02-24T01:20:04.466Z,11.21
2023-02-24T01:21:04.639Z,11.17
2023-02-24T01:22:04.788Z,11.17
2023-02-24T01:23:04.955Z,11.17
2023-02-24T01:24:05.155Z,11.16
2023-02-24T01:25:05.333Z,11.14
2023-02-24T01:26:05.507Z,11.09
2023-02-24T01:27:05.658Z,11.03
2023-02-24T01:28:05.818Z,11.01
2023-02-24T01:29:05.988Z,10.99
2023-02-24T01:30:06.182Z,11.01
2023-02-24T01:31:06.490Z,10.98
2023-02-24T01:32:06.681Z,11.03
2023-02-24T01:33:06.890Z,10.96
2023-02-24T01:34:06.847Z,11.01
2023-02-24T01:35:07.058Z,10.95
2023-02-24T01:36:07.211Z,10.98
2023-02-24T01:37:07.374Z,10.92
2023-02-24T01:38:07.553Z,10.96
2023-02-24T01:39:07.753Z,10.87
2023-02-24T01:40:07.912Z,10.89
2023-02-24T01:41:08.075Z,10.89
2023-02-24T01:42:08.245Z,10.88
2023-02-24T01:43:08.394Z,10.91
2023-02-24T01:44:08.546Z,10.87
2023-02-24T01:45:08.758Z,10.81
2023-02-24T01:46:08.912Z,10.81
2023-02-24T01:47:09.049Z,10.84
2023-02-24T01:48:09.254Z,10.81
2023-02-24T01:49:09.397Z,10.80
2023-02-24T01:50:09.564Z,10.77
2023-02-24T01:51:09.723Z,10.76
2023-02-24T01:52:09.871Z,10.76
2023-02-24T01:53:10.073Z,10.77
2023-02-24T01:54:10.220Z,10.77
2023-02-24T01:55:10.436Z,10.77
2023-02-24T01:56:10.556Z,10.74
2023-02-24T01:57:10.755Z,10.73
2023-02-24T01:58:10.893Z,10.71
2023-02-24T01:59:11.063Z,10.66
2023-02-24T02:00:11.269Z,10.66
2023-02-24T02:01:11.393Z,10.63
2023-02-24T02:02:11.684Z,10.62
2023-02-24T02:03:11.745Z,10.63
2023-02-24T02:04:11.926Z,10.66
2023-02-24T02:05:12.137Z,10.66
2023-02-24T02:06:12.269Z,10.63
2023-02-24T02:07:12.438Z,10.63
2023-02-24T02:08:12.592Z,10.59
2023-02-24T02:09:12.745Z,10.63
2023-02-24T02:10:12.925Z,10.59
2023-02-24T02:11:13.114Z,10.54
2023-02-24T02:12:13.274Z,10.49
2023-02-24T02:13:13.427Z,10.41
2023-02-24T02:14:13.587Z,10.40
2023-02-24T02:15:13.766Z,10.40
2023-02-24T02:16:14.095Z,10.38
2023-02-24T02:17:14.106Z,10.37
2023-02-24T02:18:14.280Z,10.41
2023-02-24T02:19:21.472Z,10.38
2023-02-24T02:20:14.610Z,10.37
2023-02-24T02:21:14.829Z,10.33
2023-02-24T02:22:14.959Z,10.36
2023-02-24T02:23:15.127Z,10.38
2023-02-24T02:24:15.365Z,10.36
2023-02-24T02:25:15.510Z,10.33
2023-02-24T02:26:15.651Z,10.33
2023-02-24T02:27:15.861Z,10.34
2023-02-24T02:28:16.014Z,10.36
2023-02-24T02:29:16.214Z,10.33
2023-02-24T02:30:16.379Z,10.33
2023-02-24T02:31:16.674Z,10.33
2023-02-24T02:32:16.825Z,10.29
2023-02-24T02:33:16.920Z,10.30
2023-02-24T02:34:17.065Z,10.25
2023-02-24T02:35:17.213Z,10.25
2023-02-24T02:36:17.393Z,10.30
2023-02-24T02:37:17.583Z,10.26
2023-02-24T02:38:17.716Z,10.22
2023-02-24T02:39:17.882Z,10.16
2023-02-24T02:40:18.025Z,10.16
2023-02-24T02:41:18.360Z,10.05
2023-02-24T02:42:18.409Z,10.04
2023-02-24T02:43:18.559Z,10.01
2023-02-24T02:44:18.705Z,10.00
2023-02-24T02:45:18.886Z,9.96
2023-02-24T02:46:19.033Z,9.96
2023-02-24T02:47:19.251Z,9.98
2023-02-24T02:48:19.400Z,9.93
2023-02-24T02:49:19.586Z,9.93
2023-02-24T02:50:19.741Z,9.88
2023-02-24T02:51:20.179Z,9.87
2023-02-24T02:52:20.065Z,9.79
2023-02-24T02:53:20.223Z,9.82
2023-02-24T02:54:20.370Z,9.72
2023-02-24T02:55:20.551Z,9.67
2023-02-24T02:56:20.730Z,9.67
2023-02-24T02:57:20.884Z,9.62
2023-02-24T02:58:21.031Z,9.63
2023-02-24T02:59:21.219Z,9.60
2023-02-24T03:00:21.426Z,9.62
2023-02-24T03:01:21.924Z,9.59
2023-02-24T03:02:21.722Z,9.56
2023-02-24T03:03:21.879Z,9.56
2023-02-24T03:04:22.183Z,9.56
2023-02-24T03:05:22.249Z,9.54
2023-02-24T03:06:22.418Z,9.46
2023-02-24T03:07:22.592Z,9.48
2023-02-24T03:08:22.789Z,9.51
2023-02-24T03:09:22.991Z,9.46
2023-02-24T03:10:23.165Z,9.46
2023-02-24T03:11:23.377Z,9.46
2023-02-24T03:12:23.510Z,9.53
2023-02-24T03:13:23.712Z,9.49
2023-02-24T03:14:23.874Z,9.46
2023-02-24T03:15:24.072Z,9.41
2023-02-24T03:16:24.284Z,9.42
2023-02-24T03:17:24.416Z,9.44
2023-02-24T03:18:24.605Z,9.44
2023-02-24T03:19:24.781Z,9.41
2023-02-24T03:20:24.927Z,9.42
2023-02-24T03:21:25.103Z,9.41
2023-02-24T03:22:25.266Z,9.36
2023-02-24T03:23:25.473Z,9.38
2023-02-24T03:24:25.670Z,9.38
2023-02-24T03:25:25.800Z,9.35
2023-02-24T03:26:25.935Z,9.35
2023-02-24T03:27:26.104Z,9.35
2023-02-24T03:28:26.285Z,9.31
2023-02-24T03:29:26.428Z,9.35
2023-02-24T03:30:26.593Z,9.28
2023-02-24T03:31:26.806Z,9.35
2023-02-24T03:32:27.064Z,9.30
2023-02-24T03:33:27.126Z,9.35
2023-02-24T03:34:27.319Z,9.33
2023-02-24T03:35:27.469Z,9.28
2023-02-24T03:36:27.673Z,9.21
2023-02-24T03:37:27.795Z,9.23
2023-02-24T03:38:28.007Z,9.19
2023-02-24T03:39:28.125Z,9.21
2023-02-24T03:40:28.305Z,9.17
2023-02-24T03:41:28.479Z,9.16
2023-02-24T03:42:28.675Z,9.17
2023-02-24T03:43:28.900Z,9.09
2023-02-24T03:44:29.035Z,9.05
2023-02-24T03:45:29.195Z,9.02
2023-02-24T03:46:29.461Z,9.02
2023-02-24T03:47:29.553Z,8.99
2023-02-24T03:48:29.756Z,8.94
2023-02-24T03:49:29.910Z,8.91
2023-02-24T03:50:30.088Z,8.83
2023-02-24T03:51:30.231Z,8.81
2023-02-24T03:52:30.424Z,8.84
2023-02-24T03:53:30.625Z,8.80
2023-02-24T03:54:30.790Z,8.76
2023-02-24T03:55:30.928Z,8.78
2023-02-24T03:56:31.081Z,8.80
2023-02-24T03:57:31.223Z,8.75
2023-02-24T03:58:31.411Z,8.75
2023-02-24T03:59:31.621Z,8.78
2023-02-24T04:00:31.784Z,8.70
2023-02-24T04:01:31.940Z,8.70
2023-02-24T04:02:32.191Z,8.68
2023-02-24T04:03:32.295Z,8.62
2023-02-24T04:04:32.493Z,8.57
2023-02-24T04:05:32.654Z,8.58
2023-02-24T04:06:32.804Z,8.60
2023-02-24T04:07:32.960Z,8.57
2023-02-24T04:08:33.129Z,8.58
2023-02-24T04:09:33.421Z,8.62
2023-02-24T04:10:33.498Z,8.60
2023-02-24T04:11:33.650Z,8.62
2023-02-24T04:12:33.873Z,8.68
2023-02-24T04:13:33.995Z,8.69
2023-02-24T04:14:34.209Z,8.65
2023-02-24T04:15:34.393Z,8.65
2023-02-24T04:16:34.562Z,8.65
2023-02-24T04:17:34.680Z,8.63
2023-02-24T04:18:34.842Z,8.62
2023-02-24T04:19:35.016Z,8.55
2023-02-24T04:20:35.178Z,8.55
2023-02-24T04:21:35.418Z,8.55
2023-02-24T04:22:35.572Z,8.55
2023-02-24T04:23:35.746Z,8.57
2023-02-24T04:24:35.945Z,8.62
2023-02-24T04:25:36.108Z,8.63
2023-02-24T04:26:36.651Z,8.66
2023-02-24T04:27:36.457Z,8.68
2023-02-24T04:28:36.607Z,8.72
2023-02-24T04:29:36.793Z,8.72
2023-02-24T04:30:37.030Z,8.69
2023-02-24T04:31:37.327Z,8.78
2023-02-24T04:32:37.443Z,8.78
2023-02-24T04:33:37.525Z,8.78
2023-02-24T04:34:37.674Z,8.72
2023-02-24T04:35:37.892Z,8.68
2023-02-24T04:36:38.060Z,8.70
2023-02-24T04:37:38.206Z,8.68
2023-02-24T04:38:38.386Z,8.66
2023-02-24T04:39:38.575Z,8.68
2023-02-24T04:40:38.720Z,8.65
2023-02-24T04:41:38.915Z,8.68
2023-02-24T04:42:39.087Z,8.65
2023-02-24T04:43:39.226Z,8.63
2023-02-24T04:44:39.421Z,8.63
2023-02-24T04:45:39.568Z,8.62
2023-02-24T04:46:39.823Z,8.62
2023-02-24T04:47:39.913Z,8.62
2023-02-24T04:48:40.119Z,8.63
2023-02-24T04:49:40.273Z,8.65
2023-02-24T04:50:40.476Z,8.65
2023-02-24T04:51:40.644Z,8.66
2023-02-24T04:52:40.819Z,8.60
2023-02-24T04:53:40.972Z,8.58
2023-02-24T04:54:41.145Z,8.57
2023-02-24T04:55:41.334Z,8.57
2023-02-24T04:56:41.550Z,8.57
2023-02-24T04:57:41.710Z,8.55
2023-02-24T04:58:41.875Z,8.57
2023-02-24T04:59:42.070Z,8.58
2023-02-24T05:00:42.315Z,8.57
2023-02-24T05:01:42.494Z,8.57
2023-02-24T05:02:42.603Z,8.55
2023-02-24T05:03:42.929Z,8.54
2023-02-24T05:04:43.043Z,8.60
2023-02-24T05:05:43.161Z,8.63
2023-02-24T05:06:43.342Z,8.60
2023-02-24T05:07:43.472Z,8.60
2023-02-24T05:08:43.672Z,8.60
2023-02-24T05:09:43.825Z,8.62
2023-02-24T05:10:44.016Z,8.60
2023-02-24T05:11:44.225Z,8.55
2023-02-24T05:12:44.373Z,8.54
2023-02-24T05:13:44.552Z,8.54
2023-02-24T05:14:44.749Z,8.46
2023-02-24T05:15:44.934Z,8.44
2023-02-24T05:16:45.154Z,8.46
2023-02-24T05:17:45.299Z,8.43
2023-02-24T05:18:45.482Z,8.42
2023-02-24T05:19:45.661Z,8.39
2023-02-24T05:20:45.822Z,8.38
2023-02-24T05:21:46.036Z,8.42
2023-02-24T05:22:46.185Z,8.34
2023-02-24T05:23:46.368Z,8.35
2023-02-24T05:24:46.544Z,8.34
2023-02-24T05:25:46.752Z,8.32
2023-02-24T05:26:46.933Z,8.38
2023-02-24T05:27:47.077Z,8.36
2023-02-24T05:28:47.277Z,8.32
2023-02-24T05:29:47.428Z,8.34
2023-02-24T05:30:47.653Z,8.34
2023-02-24T05:31:47.866Z,8.28
2023-02-24T05:32:48.065Z,8.26
2023-02-24T05:33:48.157Z,8.28
2023-02-24T05:34:48.337Z,8.24
2023-02-24T05:35:48.517Z,8.26
2023-02-24T05:36:48.719Z,8.24
2023-02-24T05:37:48.897Z,8.31
2023-02-24T05:38:49.033Z,8.29
2023-02-24T05:39:49.197Z,8.25
2023-02-24T05:40:49.388Z,8.26
2023-02-24T05:41:49.598Z,8.28
2023-02-24T05:42:49.777Z,8.25
2023-02-24T05:43:49.925Z,8.25
2023-02-24T05:44:50.116Z,8.28
2023-02-24T05:45:50.299Z,8.25
2023-02-24T05:46:50.511Z,8.26
2023-02-24T05:47:50.649Z,8.26
2023-02-24T05:48:50.838Z,8.28
2023-02-24T05:49:50.988Z,8.26
2023-02-24T05:50:51.157Z,8.26
2023-02-24T05:51:51.381Z,8.28
2023-02-24T05:52:51.530Z,8.28
2023-02-24T05:53:51.705Z,8.28
2023-02-24T05:54:51.861Z,8.29
2023-02-24T05:55:52.029Z,8.28
2023-02-24T05:56:52.238Z,8.26
2023-02-24T05:57:52.407Z,8.25
2023-02-24T05:58:54.730Z,8.28
2023-02-24T05:59:52.721Z,8.28
2023-02-24T06:00:52.909Z,8.34
2023-02-24T06:01:53.130Z,8.34
2023-02-24T06:02:53.322Z,8.36
2023-02-24T06:03:53.430Z,8.38
2023-02-24T06:04:53.615Z,8.42
2023-02-24T06:05:53.826Z,8.44
2023-02-24T06:06:54.019Z,8.43
2023-02-24T06:07:54.161Z,8.39
2023-02-24T06:08:54.356Z,8.36
2023-02-24T06:09:54.555Z,8.32
2023-02-24T06:10:54.704Z,8.29
2023-02-24T06:11:54.939Z,8.28
2023-02-24T06:12:55.291Z,8.26
2023-02-24T06:13:55.192Z,8.25
2023-02-24T06:14:55.631Z,8.22
2023-02-24T06:15:55.524Z,8.18
2023-02-24T06:16:55.702Z,8.20
2023-02-24T06:17:55.867Z,8.17
2023-02-24T06:18:56.038Z,8.14
2023-02-24T06:19:56.233Z,8.14
2023-02-24T06:20:56.377Z,8.16
2023-02-24T06:21:56.583Z,8.17
2023-02-24T06:22:56.724Z,8.18
2023-02-24T06:23:56.882Z,8.17
2023-02-24T06:24:57.180Z,8.16
2023-02-24T06:25:57.225Z,8.11
2023-02-24T06:26:57.421Z,8.13
2023-02-24T06:27:57.554Z,8.07
2023-02-24T06:28:57.727Z,8.10
2023-02-24T06:29:57.889Z,8.07
2023-02-24T06:30:58.077Z,8.10
2023-02-24T06:31:58.375Z,8.13
2023-02-24T06:32:58.477Z,8.09
2023-02-24T06:33:58.647Z,8.11
2023-02-24T06:34:58.764Z,8.06
2023-02-24T06:35:58.953Z,8.07
2023-02-24T06:36:59.100Z,8.07
2023-02-24T06:37:59.255Z,8.10
2023-02-24T06:38:59.439Z,8.14
2023-02-24T06:39:59.632Z,8.17
2023-02-24T06:40:59.791Z,8.20
2023-02-24T06:41:59.960Z,8.20
2023-02-24T06:43:00.136Z,8.20
2023-02-24T06:44:00.283Z,8.22
2023-02-24T06:45:00.463Z,8.14
2023-02-24T06:46:00.708Z,8.13
2023-02-24T06:47:00.805Z,8.10
2023-02-24T06:48:00.974Z,8.14
2023-02-24T06:49:01.173Z,8.13
2023-02-24T06:50:01.356Z,8.16
2023-02-24T06:51:01.525Z,8.20
2023-02-24T06:52:01.696Z,8.18
2023-02-24T06:53:01.856Z,8.18
2023-02-24T06:54:02.040Z,8.18
2023-02-24T06:55:02.231Z,8.24
2023-02-24T06:56:02.394Z,8.25
2023-02-24T06:57:02.558Z,8.28
2023-02-24T06:58:02.731Z,8.34
2023-02-24T06:59:02.905Z,8.28
2023-02-24T07:00:03.097Z,8.32
2023-02-24T07:01:03.300Z,8.35
2023-02-24T07:02:03.477Z,8.35
2023-02-24T07:03:03.599Z,8.35
2023-02-24T07:04:03.848Z,8.35
2023-02-24T07:05:03.958Z,8.38
2023-02-24T07:06:04.108Z,8.39
2023-02-24T07:07:04.298Z,8.42
2023-02-24T07:08:04.466Z,8.43
2023-02-24T07:09:04.648Z,8.49
2023-02-24T07:10:04.844Z,8.47
2023-02-24T07:11:04.996Z,8.46
2023-02-24T07:12:05.139Z,8.49
2023-02-24T07:13:05.338Z,8.51
2023-02-24T07:14:05.497Z,8.51
2023-02-24T07:15:05.708Z,8.52
2023-02-24T07:16:05.832Z,8.54
2023-02-24T07:17:06.025Z,8.55
2023-02-24T07:18:06.154Z,8.54
2023-02-24T07:19:06.340Z,8.58
2023-02-24T07:20:06.542Z,8.57
2023-02-24T07:21:06.712Z,8.62
2023-02-24T07:22:06.864Z,8.60
2023-02-24T07:23:07.050Z,8.65
2023-02-24T07:24:07.246Z,8.69
2023-02-24T07:25:07.455Z,8.72
2023-02-24T07:26:07.592Z,8.72
2023-02-24T07:27:07.815Z,8.73
2023-02-24T07:28:07.966Z,8.73
2023-02-24T07:29:08.151Z,8.78
2023-02-24T07:30:08.342Z,8.75
2023-02-24T07:31:08.653Z,8.83
2023-02-24T07:32:09.059Z,8.90
2023-02-24T07:33:08.833Z,8.87
2023-02-24T07:34:09.010Z,8.84
2023-02-24T07:35:09.174Z,8.88
2023-02-24T07:36:09.334Z,8.90
2023-02-24T07:37:09.492Z,8.88
2023-02-24T07:38:09.662Z,8.87
2023-02-24T07:39:09.839Z,8.87
2023-02-24T07:40:10.021Z,8.90
2023-02-24T07:41:10.183Z,8.93
2023-02-24T07:42:10.342Z,8.93
2023-02-24T07:43:10.494Z,8.93
2023-02-24T07:44:10.663Z,8.91
2023-02-24T07:45:10.920Z,8.93
2023-02-24T07:46:11.063Z,8.90
2023-02-24T07:47:11.181Z,8.93
2023-02-24T07:48:11.342Z,8.93
2023-02-24T07:49:11.497Z,8.91
2023-02-24T07:50:11.679Z,8.98
2023-02-24T07:51:11.866Z,8.91
2023-02-24T07:52:12.019Z,8.94
2023-02-24T07:53:12.179Z,8.95
2023-02-24T07:54:12.342Z,8.95
2023-02-24T07:55:12.504Z,8.93
2023-02-24T07:56:12.668Z,8.88
2023-02-24T07:57:12.832Z,8.90
2023-02-24T07:58:13.017Z,8.90
2023-02-24T07:59:14.143Z,8.90
2023-02-24T08:00:14.617Z,8.88
2023-02-24T08:01:13.512Z,8.86
2023-02-24T08:02:13.854Z,8.86
2023-02-24T08:03:13.833Z,8.90
2023-02-24T08:04:14.028Z,8.90
2023-02-24T08:05:14.180Z,8.94
2023-02-24T08:06:14.339Z,8.98
2023-02-24T08:07:14.727Z,8.98
2023-02-24T08:08:14.700Z,8.98
2023-02-24T08:09:14.836Z,9.02
2023-02-24T08:10:14.981Z,9.01
2023-02-24T08:11:15.135Z,9.01
2023-02-24T08:12:15.330Z,8.99
2023-02-24T08:13:15.511Z,9.02
2023-02-24T08:14:15.670Z,8.95
2023-02-24T08:15:15.847Z,9.01
2023-02-24T08:16:16.035Z,8.98
2023-02-24T08:17:16.184Z,8.98
2023-02-24T08:18:16.371Z,9.03
2023-02-24T08:20:14.792Z,8.95
2023-02-24T08:21:15.953Z,9.03
2023-02-24T08:22:15.123Z,9.02
2023-02-24T08:23:15.333Z,9.03
2023-02-24T08:24:15.499Z,9.05
2023-02-24T08:25:15.645Z,9.11
2023-02-24T08:26:15.871Z,9.06
2023-02-24T08:27:16.021Z,9.13
2023-02-24T08:28:16.198Z,9.13
2023-02-24T08:29:16.374Z,9.13
2023-02-24T08:30:16.528Z,9.13
2023-02-24T08:31:17.658Z,9.13
2023-02-24T08:32:19.066Z,9.16
2023-02-24T08:33:17.062Z,9.13
2023-02-24T08:34:17.317Z,9.09
2023-02-24T08:35:17.433Z,9.06
2023-02-24T08:36:17.584Z,9.11
2023-02-24T08:37:17.747Z,9.12
2023-02-24T08:38:17.896Z,9.11
2023-02-24T08:39:18.125Z,9.11
2023-02-24T08:40:18.278Z,9.17
2023-02-24T08:41:18.724Z,9.19
2023-02-24T08:42:18.664Z,9.19
2023-02-24T08:43:18.827Z,9.23
2023-02-24T08:44:19.004Z,9.21
2023-02-24T08:45:19.169Z,9.23
2023-02-24T08:46:19.613Z,9.24
2023-02-24T08:47:19.518Z,9.27
2023-02-24T08:48:19.703Z,9.35
2023-02-24T08:49:19.874Z,9.38
2023-02-24T08:50:20.050Z,9.35
2023-02-24T08:51:20.516Z,9.35
2023-02-24T08:52:20.395Z,9.39
2023-02-24T08:53:20.600Z,9.41
2023-02-24T08:54:20.759Z,9.46
2023-02-24T08:55:20.937Z,9.53
2023-02-24T08:56:21.347Z,9.63
2023-02-24T08:57:21.278Z,9.69
2023-02-24T08:58:21.438Z,9.79
2023-02-24T08:59:21.604Z,9.87
2023-02-24T09:00:21.759Z,9.94
2023-02-24T09:01:22.336Z,10.04
2023-02-24T09:02:22.140Z,10.15
2023-02-24T09:03:22.321Z,10.22
2023-02-24T09:04:22.508Z,10.31
2023-02-24T09:05:22.630Z,10.34
2023-02-24T09:06:22.820Z,10.44
2023-02-24T09:07:23.001Z,10.54
2023-02-24T09:08:23.173Z,10.52
2023-02-24T09:09:23.309Z,10.56
2023-02-24T09:10:23.470Z,10.56
2023-02-24T09:11:23.766Z,10.58
2023-02-24T09:12:23.811Z,10.55
2023-02-24T09:13:23.998Z,10.61
2023-02-24T09:14:27.962Z,10.67
2023-02-24T09:15:24.334Z,10.70
2023-02-24T09:16:24.537Z,10.74
2023-02-24T09:17:24.693Z,10.85
2023-02-24T09:18:24.863Z,10.89
2023-02-24T09:19:25.044Z,10.96
2023-02-24T09:20:25.233Z,10.98
2023-02-24T09:21:25.379Z,11.01
2023-02-24T09:22:25.559Z,11.03
2023-02-24T09:23:25.730Z,11.10
2023-02-24T09:24:25.888Z,11.16
2023-02-24T09:25:26.066Z,11.13
2023-02-24T09:26:26.220Z,11.13
2023-02-24T09:27:26.394Z,11.12
2023-02-24T09:28:26.595Z,11.06
2023-02-24T09:29:26.757Z,11.01
2023-02-24T09:30:26.906Z,10.96
2023-02-24T09:31:27.510Z,10.95
2023-02-24T09:32:27.384Z,10.89
2023-02-24T09:33:27.442Z,10.92
2023-02-24T09:34:27.598Z,10.85
2023-02-24T09:35:27.771Z,10.79
2023-02-24T09:36:28.015Z,10.79
2023-02-24T09:37:28.159Z,10.80
2023-02-24T09:38:28.285Z,10.77
2023-02-24T09:39:28.455Z,10.81
2023-02-24T09:40:28.648Z,10.87
2023-02-24T09:41:28.833Z,10.85
2023-02-24T09:42:28.951Z,10.92
2023-02-24T09:43:29.114Z,10.99
2023-02-24T09:44:29.268Z,10.98
2023-02-24T09:45:29.573Z,10.99
2023-02-24T09:46:29.864Z,11.09
2023-02-24T09:47:29.851Z,11.03
2023-02-24T09:48:29.989Z,11.09
2023-02-24T09:49:30.159Z,11.07
2023-02-24T09:50:59.133Z,11.07
2023-02-24T09:51:31.526Z,11.07
2023-02-24T09:52:30.658Z,11.07
2023-02-24T09:53:30.862Z,11.03
2023-02-24T09:54:31.048Z,11.06
2023-02-24T09:55:31.233Z,11.16
2023-02-24T09:56:31.402Z,11.17
2023-02-24T09:57:31.589Z,11.24
2023-02-24T09:58:43.040Z,11.31
2023-02-24T09:59:32.894Z,11.39
2023-02-24T10:00:32.044Z,11.47
2023-02-24T10:01:32.259Z,11.55
2023-02-24T10:02:32.415Z,11.66
2023-02-24T10:03:32.567Z,11.68
2023-02-24T10:04:32.738Z,11.69
2023-02-24T10:05:32.908Z,11.76
2023-02-24T10:06:33.057Z,11.75
2023-02-24T10:07:33.218Z,11.76
2023-02-24T10:08:33.378Z,11.79
2023-02-24T10:09:33.598Z,11.84
2023-02-24T10:10:33.725Z,11.81
2023-02-24T10:11:33.954Z,11.80
2023-02-24T10:12:34.097Z,11.86
2023-02-24T10:13:34.242Z,11.87
2023-02-24T10:14:43.133Z,11.88
2023-02-24T10:15:35.560Z,11.80
2023-02-24T10:16:34.806Z,11.80
2023-02-24T10:17:34.889Z,11.76
2023-02-24T10:18:35.070Z,11.79
2023-02-24T10:19:35.260Z,11.84
2023-02-24T10:20:35.487Z,11.88
2023-02-24T10:21:35.571Z,11.84
2023-02-24T10:22:35.772Z,11.86
2023-02-24T10:23:35.953Z,11.83
2023-02-24T10:24:36.114Z,11.84
2023-02-24T10:25:36.520Z,11.81
2023-02-24T10:26:36.468Z,11.83
2023-02-24T10:27:36.596Z,11.81
2023-02-24T10:28:36.783Z,11.83
2023-02-24T10:29:36.930Z,11.81
2023-02-24T10:30:37.255Z,11.81
2023-02-24T10:31:37.475Z,11.76
2023-02-24T10:32:37.527Z,11.72
2023-02-24T10:33:37.648Z,11.72
2023-02-24T10:34:37.832Z,11.68
2023-02-24T10:35:37.985Z,11.69
2023-02-24T10:36:38.170Z,11.62
2023-02-24T10:37:38.345Z,11.61
2023-02-24T10:38:38.538Z,11.55
2023-02-24T10:39:38.688Z,11.54
2023-02-24T10:40:38.875Z,11.54
2023-02-24T10:41:39.051Z,11.55
2023-02-24T10:42:39.236Z,11.54
2023-02-24T10:43:39.411Z,11.50
2023-02-24T10:44:39.517Z,11.48
2023-02-24T10:45:39.678Z,11.50
2023-02-24T10:46:42.186Z,11.46
2023-02-24T10:47:40.104Z,11.44
2023-02-24T10:48:41.651Z,11.38
2023-02-24T10:49:40.391Z,11.28
2023-02-24T10:50:53.830Z,11.24
2023-02-24T10:51:41.790Z,11.24
2023-02-24T10:52:40.890Z,11.22
2023-02-24T10:53:41.090Z,11.14
2023-02-24T10:54:41.241Z,11.06
2023-02-24T10:55:41.447Z,11.01
2023-02-24T10:56:41.586Z,10.98
2023-02-24T10:57:53.535Z,10.99
2023-02-24T10:58:42.894Z,10.89
2023-02-24T10:59:42.117Z,10.92
2023-02-24T11:00:42.243Z,10.88
2023-02-24T11:01:42.434Z,10.87
2023-02-24T11:02:42.593Z,10.84
2023-02-24T11:03:42.741Z,10.80
2023-02-24T11:04:42.900Z,10.77
2023-02-24T11:05:43.061Z,10.77
2023-02-24T11:06:43.252Z,10.73
2023-02-24T11:07:43.371Z,10.67
2023-02-24T11:08:43.541Z,10.63
2023-02-24T11:09:43.696Z,10.59
2023-02-24T11:10:43.862Z,10.55
2023-02-24T11:11:44.041Z,10.51
2023-02-24T11:12:44.214Z,10.41
2023-02-24T11:13:44.382Z,10.40
2023-02-24T11:14:44.532Z,10.34
2023-02-24T11:15:44.763Z,10.31
2023-02-24T11:16:44.852Z,10.29
2023-02-24T11:17:45.098Z,10.22
2023-02-24T11:18:45.217Z,10.13
2023-02-24T11:19:45.392Z,10.13
2023-02-24T11:20:49.349Z,10.07
2023-02-24T11:21:45.747Z,10.07
2023-02-24T11:22:45.926Z,10.01
2023-02-24T11:23:46.056Z,10.08
2023-02-24T11:24:46.225Z,10.01
2023-02-24T11:25:46.402Z,10.03
2023-02-24T11:26:46.585Z,10.01
2023-02-24T11:27:46.776Z,10.00
2023-02-24T11:28:46.918Z,10.04
2023-02-24T11:29:47.079Z,10.01
2023-02-24T11:30:47.377Z,10.01
2023-02-24T11:31:47.530Z,9.94
2023-02-24T11:32:47.638Z,9.96
2023-02-24T11:33:47.735Z,9.94
2023-02-24T11:34:47.909Z,9.87
2023-02-24T11:35:48.090Z,9.87
2023-02-24T11:36:48.301Z,9.88
2023-02-24T11:37:48.448Z,9.87
2023-02-24T11:38:48.626Z,9.88
2023-02-24T11:39:48.778Z,9.93
2023-02-24T11:40:48.959Z,9.90
2023-02-24T11:41:49.099Z,9.94
2023-02-24T11:42:49.280Z,9.94
2023-02-24T11:43:49.445Z,9.94
2023-02-24T11:44:49.619Z,9.97
2023-02-24T11:45:49.801Z,9.90
2023-02-24T11:46:49.982Z,9.94
2023-02-24T11:47:50.142Z,9.93
2023-02-24T11:48:50.359Z,9.96
2023-02-24T11:49:50.542Z,9.90
2023-02-24T11:50:50.699Z,9.84
2023-02-24T11:51:50.852Z,9.79
2023-02-24T11:52:51.023Z,9.75
2023-02-24T11:53:51.210Z,9.72
2023-02-24T11:54:51.384Z,9.66
2023-02-24T11:55:51.554Z,9.64
2023-02-24T11:56:51.715Z,9.63
2023-02-24T11:57:51.889Z,9.59
2023-02-24T11:58:52.040Z,9.57
2023-02-24T11:59:52.198Z,9.51
2023-02-24T12:00:52.446Z,9.49
2023-02-24T12:01:52.569Z,9.45
2023-02-24T12:02:52.817Z,9.45
2023-02-24T12:03:52.884Z,9.41
2023-02-24T12:04:53.045Z,9.41
2023-02-24T12:05:53.295Z,9.39
2023-02-24T12:06:53.435Z,9.33
2023-02-24T12:07:53.585Z,9.30
2023-02-24T12:08:53.753Z,9.30
2023-02-24T12:10:00.301Z,9.30
2023-02-24T12:10:55.123Z,9.26
2023-02-24T12:11:54.270Z,9.26
2023-02-24T12:12:54.432Z,9.21
2023-02-24T12:13:54.616Z,9.20
2023-02-24T12:14:54.772Z,9.16
2023-02-24T12:15:54.985Z,9.12
2023-02-24T12:16:55.157Z,9.06
2023-02-24T12:17:55.297Z,9.06
2023-02-24T12:18:55.461Z,8.98
2023-02-24T12:19:55.609Z,8.91
2023-02-24T12:20:55.811Z,8.90
2023-02-24T12:21:55.994Z,8.84
2023-02-24T12:22:56.171Z,8.81
2023-02-24T12:23:56.327Z,8.78
2023-02-24T12:24:56.486Z,8.76
2023-02-24T12:25:56.640Z,8.73
2023-02-24T12:26:56.855Z,8.72
2023-02-24T12:27:56.970Z,8.73
2023-02-24T12:28:57.139Z,8.75
2023-02-24T12:29:57.301Z,8.76
2023-02-24T12:30:57.827Z,8.78
2023-02-24T12:31:57.745Z,8.84
2023-02-24T12:32:57.910Z,8.81
2023-02-24T12:33:57.978Z,8.78
2023-02-24T12:34:58.181Z,8.72
2023-02-24T12:35:58.329Z,8.78
2023-02-24T12:36:58.535Z,8.72
2023-02-24T12:37:58.705Z,8.73
2023-02-24T12:38:58.879Z,8.70
2023-02-24T12:39:59.043Z,8.72
2023-02-24T12:40:59.234Z,8.68
2023-02-24T12:41:59.394Z,8.72
2023-02-24T12:42:59.559Z,8.70
2023-02-24T12:43:59.729Z,8.72
2023-02-24T12:44:59.920Z,8.68
2023-02-24T12:46:00.145Z,8.66
2023-02-24T12:47:00.281Z,8.62
2023-02-24T12:48:00.442Z,8.55
2023-02-24T12:49:00.620Z,8.55
2023-02-24T12:50:00.776Z,8.54
2023-02-24T12:51:00.986Z,8.52
2023-02-24T12:52:01.141Z,8.51
2023-02-24T12:53:01.334Z,8.49
2023-02-24T12:54:01.502Z,8.51
2023-02-24T12:55:01.698Z,8.49
2023-02-24T12:56:01.828Z,8.46
2023-02-24T12:57:01.993Z,8.44
2023-02-24T12:58:02.166Z,8.44
2023-02-24T12:59:02.427Z,8.44
2023-02-24T13:00:02.513Z,8.43
2023-02-24T13:01:02.749Z,8.39
2023-02-24T13:02:02.904Z,8.38
2023-02-24T13:03:03.032Z,8.38
2023-02-24T13:04:03.210Z,8.39
2023-02-24T13:05:03.409Z,8.34
2023-02-24T13:06:03.553Z,8.35
2023-02-24T13:07:03.717Z,8.38
2023-02-24T13:08:03.901Z,8.36
2023-02-24T13:09:04.053Z,8.36
2023-02-24T13:10:04.249Z,8.38
2023-02-24T13:11:04.374Z,8.32
2023-02-24T13:12:04.871Z,8.32